• Join FlightAware (Why Join?)
  • Login
  • US Flag 
03:30PM EST


 

Airport Tracker/Info


-or-


 

Live Flight TrackerFlight Track Log ✈ QLK117D ✈ 08-Jul-2013 ✈ YCFS - YSSY / SYD

Flight Track Log - Related Links

Times and Time Zones

All times are in EDT time to prevent confusion due to time zone crossing. See the QLK117D flight status page for this flight to view local times or setup timezone preferences in your user account.

Time Position Orientation Groundspeed Altitude Reporting Facility
EDT Latitude Longitude Course Direction KTS MPH feet Rate Location/Type
03:05AM -30.3122 153.1172 212° Southwest 22,000  Level Aus ATC (Calculated)
03:06AM -30.3595 153.0791 211° Southwest 22,000 -6,420 Level Aus ATC (Calculated)
03:07AM -30.3828 153.0604 215° Southwest  Level FlightAware Approximate
03:07AM -30.5006 152.9807 215° Southwest 436 502 8,100  Level Aus ATC (RADAR)
03:07AM -30.5358 152.9486 218° Southwest 261 300 9,500 2,040 Climbing Aus ATC (RADAR)
03:08AM -30.5732 152.9158 217° Southwest 256 295 10,800 1,860 Climbing Aus ATC (RADAR)
03:09AM -30.6129 152.8835 215° Southwest 261 300 12,000 1,860 Climbing Aus ATC (RADAR)
03:10AM -30.6718 152.8342 216° Southwest 260 299 13,900 1,680 Climbing Aus ATC (RADAR)
03:11AM -30.7255 152.7895 216° Southwest 260 299 15,300 1,380 Climbing Aus ATC (RADAR)
03:12AM -30.7816 152.7452 214° Southwest 264 304 16,500 1,200 Climbing Aus ATC (RADAR)
03:12AM -30.8211 152.7131 215° Southwest 261 300 17,200 1,020 Climbing Aus ATC (RADAR)
03:13AM -30.8559 152.6844 215° Southwest 263 303 17,800 1,020 Climbing Aus ATC (RADAR)
03:13AM -30.8905 152.6553 216° Southwest 262 302 18,400 1,020 Climbing Aus ATC (RADAR)
03:14AM -30.9256 152.6271 215° Southwest 262 302 19,000 840 Climbing Aus ATC (RADAR)
03:15AM -30.9594 152.5976 217° Southwest 260 299 19,400 840 Climbing Aus ATC (RADAR)
03:16AM -31.0292 152.5398 215° Southwest 263 303 20,500 1,200 Climbing Aus ATC (RADAR)
03:16AM -31.0637 152.5126 214° Southwest 257 296 21,500 960 Climbing Aus ATC (RADAR)
03:17AM -31.1161 152.4688 216° Southwest 256 295 22,000 600 Climbing Aus ATC (RADAR)
03:18AM -31.1548 152.4365 216° Southwest 258 297 22,500 360 Climbing Aus ATC (RADAR)
03:19AM -31.1905 152.4073 215° Southwest 269 310 22,500  Level Aus ATC (RADAR)
03:19AM -31.2384 152.3676 215° Southwest 283 326 22,500  Level Aus ATC (RADAR)
03:21AM -31.3211 152.2991 215° Southwest 295 339 22,500  Level Aus ATC (RADAR)
03:21AM -31.3653 152.2619 216° Southwest 295 339 22,500  Level Aus ATC (RADAR)
03:22AM -31.4214 152.2151 215° Southwest 297 342 22,500  Level Aus ATC (RADAR)
03:23AM -31.4774 152.1683 216° Southwest 298 343 22,500  Level Aus ATC (RADAR)
03:23AM -31.5168 152.1358 215° Southwest 297 342 22,500  Level Aus ATC (RADAR)
03:24AM -31.5671 152.0935 216° Southwest 298 343 22,500  Level Aus ATC (RADAR)
03:25AM -31.6344 152.0372 215° Southwest 297 342 22,500  Level Aus ATC (RADAR)
03:26AM -31.6954 151.9859 216° Southwest 294 338 22,500  Level Aus ATC (RADAR)
03:27AM -31.7603 151.9310 216° Southwest 289 333 22,500  Level Aus ATC (RADAR)
03:28AM -31.8114 151.8880 216° Southwest 295 339 22,500  Level Aus ATC (RADAR)
03:28AM -31.8429 151.8611 216° Southwest 289 333 22,500  Level Aus ATC (RADAR)
03:29AM -31.8883 151.8230 216° Southwest 292 336 22,500  Level Aus ATC (RADAR)
03:30AM -31.9195 151.7966 216° Southwest 286 329 22,500  Level Aus ATC (RADAR)
03:30AM -31.9579 151.7641 216° Southwest 286 329 22,500  Level Aus ATC (RADAR)
03:31AM -32.0348 151.6991 216° Southwest 288 331 22,500  Level Aus ATC (RADAR)
03:32AM -32.0898 151.6524 216° Southwest 289 333 22,500  Level Aus ATC (RADAR)
03:33AM -32.1338 151.6145 216° Southwest 290 334 22,500  Level Aus ATC (RADAR)
03:34AM -32.2008 151.5582 215° Southwest 292 336 22,500  Level Aus ATC (RADAR)
03:35AM -32.2504 151.5156 216° Southwest 291 335 22,500  Level Aus ATC (RADAR)
03:35AM -32.2892 151.4831 215° Southwest 288 331 22,500  Level Aus ATC (RADAR)
03:36AM -32.3470 151.4515 205° Southwest 306 352 22,500  Level Aus ATC (RADAR)
03:36AM -32.3912 151.4405 192° South 319 367 22,500  Level Aus ATC (RADAR)
03:37AM -32.4783 151.4183 192° South 319 367 22,500  Level Aus ATC (RADAR)
03:38AM -32.5526 151.3979 193° South 319 367 22,500  Level Aus ATC (RADAR)
03:39AM -32.6030 151.3843 193° South 317 365 22,500  Level Aus ATC (RADAR)
03:40AM -32.6656 151.3682 192° South 315 362 22,500  Level Aus ATC (RADAR)
03:40AM -32.7081 151.3562 193° South 315 362 22,500 -660 Level Aus ATC (RADAR)
03:41AM -32.7578 151.3419 194° South 316 364 21,800 -1,260 Descending Aus ATC (RADAR)
03:41AM -32.8238 151.3244 193° South 323 372 20,900 -1,260 Descending Aus ATC (RADAR)
03:42AM -32.9035 151.3030 193° South 319 367 19,800 -1,200 Descending Aus ATC (RADAR)
03:43AM -32.9672 151.2850 193° South 315 362 18,900 -1,320 Descending Aus ATC (RADAR)
03:44AM -33.0177 151.2713 193° South 320 368 18,100 -1,320 Descending Aus ATC (RADAR)
03:44AM -33.0693 151.2568 193° South 327 376 17,400 -1,320 Descending Aus ATC (RADAR)
03:45AM -33.1208 151.2424 193° South 327 376 16,600 -1,320 Descending Aus ATC (RADAR)
03:45AM -33.1714 151.2284 193° South 321 369 15,900 -1,440 Descending Aus ATC (RADAR)
03:46AM -33.2673 151.2172 186° South 324 373 14,200 -1,740 Descending Aus ATC (RADAR)
03:47AM -33.3211 151.2154 182° South 317 365 13,100 -1,920 Descending Aus ATC (RADAR)
03:48AM -33.3909 151.2124 182° South 303 349 11,500 -1,800 Descending Aus ATC (RADAR)
03:49AM -33.4549 151.2084 183° South 273 314 10,100 -1,680 Descending Aus ATC (RADAR)
03:49AM -33.4970 151.2063 182° South 258 297 9,200 -1,500 Descending Aus ATC (RADAR)
03:50AM -33.5483 151.2037 182° South 245 282 8,200 -1,320 Descending Aus ATC (RADAR)
03:51AM -33.6254 151.1982 183° South 237 273 6,700 -1,320 Descending Aus ATC (RADAR)
03:52AM -33.6752 151.1942 184° South 229 264 5,700 -1,380 Descending Aus ATC (RADAR)
03:52AM -33.7116 151.1869 190° South 235 270 4,900 -1,380 Descending Aus ATC (RADAR)
03:53AM -33.7538 151.1782 190° South 231 266 4,000 -1,380 Descending Aus ATC (RADAR)
03:54AM -33.8153 151.1632 192° South 220 253 2,600 -1,140 Descending Aus ATC (RADAR)
03:55AM -33.8578 151.1638 179° South 178 205 2,000 -780 Descending Aus ATC (RADAR)
03:56AM -33.8822 151.1714 166° South 156 180 1,500 -840 Descending Aus ATC (RADAR)
03:57AM -33.9186 151.1803 169° South 125 144 700 -720 Descending Aus ATC (RADAR)
03:58AM -33.9507 151.1887 168° South 116 133 100 -600 Descending Aus ATC (RADAR)